Terminal Aerodrome Forecast
Issued by NWS Spokane, WA

Home | Current Version | Previous Version | Text Only | Print | Product List | Glossary On
Versions: 1 2 3 4 5 6 7 8 9 10 11 12 13 14 15 16 17 18 19 20 21 22 23 24 25 26 27 28 29 30 31 32 33 34
158
FTUS46 KOTX 170534
TAFEAT
TAF
KEAT 170534Z 1706/1806 28004KT 6SM BR OVC019
     FM171200 29003KT 4SM BR OVC015
      TEMPO 1712/1716 3SM -SN SCT008 OVC015
     FM171600 00000KT 2SM -SN BR OVC012
     FM172100 31003KT 5SM -FZRAPL OVC007
     FM180000 08006KT 5SM FZRA OVC007=

USA.gov is the U.S. government's official web portal to all federal, state and local government web resources and services.